createdAt,value
2023-05-14T00:02:17.701Z,53.50
2023-05-14T00:04:45.461Z,53.46
2023-05-14T00:07:13.432Z,53.49
2023-05-14T00:09:41.253Z,53.51
2023-05-14T00:12:09.037Z,53.49
2023-05-14T00:14:36.796Z,53.82
2023-05-14T00:17:04.656Z,53.96
2023-05-14T00:19:32.439Z,53.89
2023-05-14T00:22:00.533Z,54.01
2023-05-14T00:24:28.316Z,53.99
2023-05-14T00:26:56.059Z,54.00
2023-05-14T00:29:23.995Z,54.13
2023-05-14T00:31:51.874Z,54.05
2023-05-14T00:34:19.693Z,54.05
2023-05-14T00:36:47.517Z,54.04
2023-05-14T00:39:15.342Z,54.14
2023-05-14T00:41:43.478Z,54.23
2023-05-14T00:44:11.290Z,54.37
2023-05-14T00:46:39.118Z,54.32
2023-05-14T00:49:07.136Z,54.49
2023-05-14T00:51:35.046Z,54.56
2023-05-14T00:54:02.802Z,54.59
2023-05-14T00:56:30.692Z,54.71
2023-05-14T00:58:58.553Z,54.88
2023-05-14T01:01:28.697Z,54.66
2023-05-14T01:03:58.053Z,54.75
2023-05-14T01:06:37.659Z,54.89
2023-05-14T01:09:32.802Z,55.10
2023-05-14T01:12:12.450Z,55.32
2023-05-14T01:15:02.780Z,55.35
2023-05-14T01:17:33.218Z,55.40
2023-05-14T01:20:01.958Z,55.47
2023-05-14T01:22:29.825Z,55.56
2023-05-14T01:24:57.836Z,55.49
2023-05-14T01:27:53.567Z,55.53
2023-05-14T01:30:47.045Z,55.57
2023-05-14T01:33:18.264Z,55.49
2023-05-14T01:35:46.575Z,55.45
2023-05-14T01:38:18.459Z,55.50
2023-05-14T01:40:46.923Z,55.47
2023-05-14T01:43:15.812Z,55.40
2023-05-14T01:45:44.026Z,55.40
2023-05-14T01:48:12.911Z,55.41
2023-05-14T01:50:40.863Z,55.30
2023-05-14T01:53:09.889Z,55.37
2023-05-14T01:55:37.749Z,55.42
2023-05-14T01:58:05.622Z,55.51
2023-05-14T02:00:33.590Z,55.45
2023-05-14T02:03:01.420Z,55.55
2023-05-14T02:05:29.312Z,55.47
2023-05-14T02:07:57.127Z,55.45
2023-05-14T02:10:25.465Z,55.73
2023-05-14T02:12:53.949Z,55.95
2023-05-14T02:15:21.739Z,56.13
2023-05-14T02:17:50.116Z,56.13
2023-05-14T02:20:18.098Z,56.35
2023-05-14T02:22:46.418Z,56.39
2023-05-14T02:25:14.834Z,56.48
2023-05-14T02:27:42.630Z,56.33
2023-05-14T02:30:11.330Z,56.47
2023-05-14T02:32:42.180Z,56.33
2023-05-14T02:35:10.706Z,56.45
2023-05-14T02:37:38.541Z,56.29
2023-05-14T02:40:07.456Z,56.21
2023-05-14T02:42:35.618Z,56.34
2023-05-14T02:45:03.747Z,56.42
2023-05-14T02:47:31.683Z,56.28
2023-05-14T02:50:00.699Z,56.35
2023-05-14T02:52:28.490Z,56.28
2023-05-14T02:54:56.219Z,56.13
2023-05-14T02:57:24.197Z,56.24
2023-05-14T02:59:52.142Z,56.02
2023-05-14T03:02:20.492Z,56.10
2023-05-14T03:04:48.884Z,55.89
2023-05-14T03:07:19.373Z,55.92
2023-05-14T03:09:47.257Z,55.82
2023-05-14T03:12:15.202Z,55.94
2023-05-14T03:14:44.320Z,55.78
2023-05-14T03:17:12.245Z,55.89
2023-05-14T03:19:40.860Z,56.06
2023-05-14T03:22:08.935Z,56.09
2023-05-14T03:24:40.066Z,56.14
2023-05-14T03:27:08.824Z,56.46
2023-05-14T03:29:36.618Z,56.47
2023-05-14T03:32:05.172Z,56.44
2023-05-14T03:34:33.080Z,56.41
2023-05-14T03:37:01.209Z,56.57
2023-05-14T03:39:29.024Z,56.57
2023-05-14T03:41:58.897Z,56.05
2023-05-14T03:44:27.013Z,56.01
2023-05-14T03:46:54.765Z,55.78
2023-05-14T03:49:22.651Z,55.57
2023-05-14T03:51:51.606Z,55.75
2023-05-14T03:54:19.414Z,56.10
2023-05-14T03:56:48.374Z,56.26
2023-05-14T03:59:16.222Z,56.30
2023-05-14T04:01:47.066Z,56.36
2023-05-14T04:04:14.878Z,56.38
2023-05-14T04:06:42.705Z,56.43
2023-05-14T04:09:11.946Z,56.52
2023-05-14T04:11:39.746Z,56.38
2023-05-14T04:14:07.753Z,56.32
2023-05-14T04:16:35.605Z,56.27
2023-05-14T04:19:06.555Z,56.10
2023-05-14T04:21:35.834Z,55.83
2023-05-14T04:24:04.690Z,55.59
2023-05-14T04:26:33.485Z,55.56
2023-05-14T04:29:03.127Z,55.37
2023-05-14T04:31:31.766Z,55.19
2023-05-14T04:33:59.720Z,55.04
2023-05-14T04:36:27.461Z,55.07
2023-05-14T04:38:56.037Z,55.01
2023-05-14T04:41:23.842Z,54.99
2023-05-14T04:43:51.605Z,54.78
2023-05-14T04:46:19.849Z,54.71
2023-05-14T04:48:51.684Z,54.49
2023-05-14T04:51:19.414Z,54.33
2023-05-14T04:53:47.786Z,54.19
2023-05-14T04:56:15.763Z,53.95
2023-05-14T04:58:43.629Z,54.02
2023-05-14T05:01:11.445Z,53.70
2023-05-14T05:03:39.462Z,53.76
2023-05-14T05:06:07.846Z,53.36
2023-05-14T05:08:36.848Z,53.04
2023-05-14T05:11:05.112Z,52.89
2023-05-14T05:13:32.968Z,52.82
2023-05-14T05:16:00.825Z,52.43
2023-05-14T05:18:28.681Z,52.20
2023-05-14T05:20:57.054Z,52.21
2023-05-14T05:23:24.813Z,52.12
2023-05-14T05:25:52.665Z,51.90
2023-05-14T05:28:20.508Z,51.69
2023-05-14T05:30:48.471Z,51.04
2023-05-14T05:33:16.412Z,50.86
2023-05-14T05:35:44.751Z,50.51
2023-05-14T05:38:12.592Z,50.52
2023-05-14T05:40:40.548Z,50.44
2023-05-14T05:43:08.351Z,50.32
2023-05-14T05:45:36.201Z,50.03
2023-05-14T05:48:04.277Z,49.89
2023-05-14T05:50:32.269Z,49.72
2023-05-14T05:53:00.114Z,49.46
2023-05-14T05:55:28.856Z,49.02
2023-05-14T05:57:56.633Z,48.88
2023-05-14T06:00:24.809Z,48.45
2023-05-14T06:02:56.521Z,48.37
2023-05-14T06:05:25.395Z,48.34
2023-05-14T06:07:53.790Z,48.07
2023-05-14T06:10:22.330Z,47.78
2023-05-14T06:12:50.365Z,47.65
2023-05-14T06:15:19.799Z,47.42
2023-05-14T06:17:47.969Z,47.29
2023-05-14T06:20:15.904Z,47.06
2023-05-14T06:22:44.028Z,47.11
2023-05-14T06:25:12.052Z,46.95
2023-05-14T06:27:39.811Z,46.45
2023-05-14T06:30:08.436Z,46.66
2023-05-14T06:32:36.366Z,46.76
2023-05-14T06:35:04.528Z,46.04
2023-05-14T06:37:32.300Z,45.63
2023-05-14T06:40:01.157Z,45.82
2023-05-14T06:42:29.019Z,45.91
2023-05-14T06:44:56.739Z,45.52
2023-05-14T06:47:24.852Z,45.58
2023-05-14T06:49:52.775Z,45.40
2023-05-14T06:52:20.508Z,45.98
2023-05-14T06:54:48.333Z,45.69
2023-05-14T06:57:16.274Z,44.94
2023-05-14T06:59:44.081Z,44.77
2023-05-14T07:02:12.431Z,45.04
2023-05-14T07:04:40.516Z,44.45
2023-05-14T07:07:10.704Z,44.04
2023-05-14T07:09:38.493Z,44.24
2023-05-14T07:12:07.052Z,44.45
2023-05-14T07:14:35.185Z,44.45
2023-05-14T07:17:03.197Z,44.66
2023-05-14T07:19:31.042Z,44.26
2023-05-14T07:21:58.844Z,44.36
2023-05-14T07:24:26.641Z,44.12
2023-05-14T07:26:55.268Z,43.84
2023-05-14T07:29:25.046Z,44.10
2023-05-14T07:31:52.970Z,43.59
2023-05-14T07:34:21.090Z,43.47
2023-05-14T07:36:48.926Z,43.61
2023-05-14T07:39:17.859Z,42.80
2023-05-14T07:41:46.042Z,41.38
2023-05-14T07:44:15.988Z,41.06
2023-05-14T07:46:44.862Z,41.06
2023-05-14T07:49:12.977Z,40.66
2023-05-14T07:51:40.723Z,40.00
2023-05-14T07:54:09.758Z,39.33
2023-05-14T07:56:37.534Z,39.06
2023-05-14T07:59:07.116Z,38.88
2023-05-14T13:02:42.752Z,26.01
2023-05-14T13:05:12.033Z,25.53
2023-05-14T13:07:40.226Z,25.62
2023-05-14T13:10:08.681Z,25.30
2023-05-14T13:12:36.572Z,25.60
2023-05-14T13:15:05.482Z,24.72
2023-05-14T13:17:33.247Z,24.39
2023-05-14T13:20:01.243Z,24.67
2023-05-14T13:22:29.429Z,24.55
2023-05-14T13:24:57.323Z,24.59
2023-05-14T13:27:25.290Z,24.68
2023-05-14T13:29:53.241Z,23.87
2023-05-14T13:32:21.012Z,24.20
2023-05-14T13:34:48.755Z,23.89
2023-05-14T13:37:16.782Z,24.02
2023-05-14T13:39:44.549Z,23.42
2023-05-14T13:42:12.397Z,23.44
2023-05-14T13:44:40.303Z,23.08
2023-05-14T13:47:08.587Z,23.27
2023-05-14T13:49:36.383Z,23.19
2023-05-14T13:52:04.667Z,22.69
2023-05-14T13:54:32.916Z,22.23
2023-05-14T13:57:00.707Z,21.96
2023-05-14T13:59:28.517Z,22.04
2023-05-14T14:01:56.251Z,21.79
2023-05-14T14:04:28.071Z,21.81
2023-05-14T14:06:56.070Z,22.19
2023-05-14T14:09:25.572Z,22.26
2023-05-14T14:11:53.615Z,21.85
2023-05-14T14:14:21.563Z,21.78
2023-05-14T14:16:49.367Z,21.81
2023-05-14T14:19:18.509Z,21.74
2023-05-14T14:21:46.591Z,21.73
2023-05-14T14:24:14.503Z,21.49
2023-05-14T14:26:42.342Z,21.91
2023-05-14T14:29:10.177Z,21.95
2023-05-14T14:31:38.209Z,22.07
2023-05-14T14:34:06.283Z,22.06
2023-05-14T14:36:34.032Z,22.05
2023-05-14T14:39:01.983Z,22.18
2023-05-14T14:41:29.943Z,22.21
2023-05-14T14:43:57.745Z,22.87
2023-05-14T14:46:26.639Z,23.44
2023-05-14T14:48:54.503Z,23.63
2023-05-14T14:51:24.070Z,23.72
2023-05-14T14:53:52.991Z,24.31
2023-05-14T14:56:21.272Z,24.53
2023-05-14T14:58:51.408Z,25.28
2023-05-14T15:01:21.312Z,25.84
2023-05-14T15:03:49.250Z,26.26
2023-05-14T15:06:18.346Z,26.59
2023-05-14T15:08:46.176Z,27.05
2023-05-14T15:11:14.387Z,27.29
2023-05-14T15:13:43.171Z,27.31
2023-05-14T15:16:11.288Z,27.72
2023-05-14T15:18:39.113Z,28.04
2023-05-14T15:21:08.158Z,28.23
2023-05-14T15:23:36.564Z,28.12
2023-05-14T15:26:06.439Z,27.93
2023-05-14T15:28:34.297Z,28.17
2023-05-14T15:31:03.582Z,28.35
2023-05-14T15:33:31.394Z,28.22
2023-05-14T15:35:59.228Z,28.53
2023-05-14T15:38:27.009Z,28.91
2023-05-14T15:40:54.780Z,28.46
2023-05-14T15:43:22.601Z,28.54
2023-05-14T15:45:50.600Z,29.17
2023-05-14T15:48:19.885Z,29.67
2023-05-14T15:50:51.619Z,30.23
2023-05-14T15:53:19.465Z,31.04
2023-05-14T15:55:50.429Z,31.27
2023-05-14T15:58:18.202Z,31.39
2023-05-14T16:00:45.957Z,31.87
2023-05-14T16:03:15.452Z,32.15
2023-05-14T16:05:44.756Z,32.07
2023-05-14T16:08:12.606Z,32.61
2023-05-14T16:10:40.670Z,32.71
2023-05-14T16:13:08.384Z,32.87
2023-05-14T16:15:36.305Z,33.02
2023-05-14T16:18:04.401Z,33.24
2023-05-14T16:20:32.203Z,33.52
2023-05-14T16:22:59.978Z,33.50
2023-05-14T16:25:30.304Z,33.63
2023-05-14T16:27:58.057Z,33.65
2023-05-14T16:30:26.080Z,34.18
2023-05-14T16:32:54.353Z,34.37
2023-05-14T16:35:22.275Z,34.71
2023-05-14T16:37:50.523Z,35.08
2023-05-14T16:40:19.758Z,35.07
2023-05-14T16:42:49.243Z,35.06
2023-05-14T16:45:17.460Z,35.52
2023-05-14T16:47:45.458Z,35.45
2023-05-14T16:50:13.365Z,35.47
2023-05-14T16:52:41.184Z,35.67
2023-05-14T16:55:09.531Z,35.96
2023-05-14T16:57:37.450Z,36.32
2023-05-14T17:00:06.611Z,36.46
2023-05-14T17:02:36.103Z,36.61
2023-05-14T17:05:04.584Z,36.86
2023-05-14T17:07:32.592Z,36.85
2023-05-14T17:10:03.510Z,37.13
2023-05-14T17:12:31.377Z,37.40
2023-05-14T17:14:59.351Z,37.40
2023-05-14T17:17:27.426Z,37.59
2023-05-14T17:19:55.263Z,37.70
2023-05-14T17:22:23.060Z,37.81
2023-05-14T17:24:50.918Z,38.17
2023-05-14T17:27:19.040Z,38.26
2023-05-14T17:29:51.025Z,38.38
2023-05-14T17:32:20.423Z,38.59
2023-05-14T17:34:48.396Z,38.90
2023-05-14T17:37:16.851Z,39.06
2023-05-14T17:39:44.662Z,39.11
2023-05-14T17:42:12.603Z,39.43
2023-05-14T17:44:40.650Z,39.41
2023-05-14T17:47:08.943Z,39.68
2023-05-14T17:49:36.866Z,40.12
2023-05-14T17:52:04.972Z,40.19
2023-05-14T17:54:32.793Z,40.44
2023-05-14T17:57:00.788Z,40.63
2023-05-14T17:59:28.955Z,40.70
2023-05-14T18:01:56.790Z,41.14
2023-05-14T18:04:24.719Z,41.70
2023-05-14T18:06:52.905Z,41.78
2023-05-14T18:09:21.365Z,42.15
2023-05-14T18:11:49.435Z,42.27
2023-05-14T18:14:18.721Z,42.61
2023-05-14T18:16:46.813Z,42.84
2023-05-14T18:19:15.269Z,43.20
2023-05-14T18:21:43.343Z,43.52
2023-05-14T18:24:13.543Z,43.39
2023-05-14T18:26:42.554Z,43.35
2023-05-14T18:29:10.381Z,43.33
2023-05-14T18:31:38.316Z,43.67
2023-05-14T18:34:06.168Z,43.84
2023-05-14T18:36:34.145Z,43.93
2023-05-14T18:39:01.879Z,44.20
2023-05-14T18:41:30.436Z,44.45
2023-05-14T18:43:58.387Z,44.99
2023-05-14T18:46:28.991Z,45.37
2023-05-14T18:48:57.027Z,45.85
2023-05-14T18:51:26.149Z,46.49
2023-05-14T18:53:54.752Z,46.52
2023-05-14T18:56:22.660Z,46.90
2023-05-14T18:58:50.544Z,46.79
2023-05-14T19:01:21.403Z,46.86
2023-05-14T19:03:49.296Z,47.04
2023-05-14T19:06:17.159Z,47.10
2023-05-14T19:08:46.191Z,47.16
2023-05-14T19:11:14.067Z,47.41
2023-05-14T19:13:46.645Z,47.56
2023-05-14T19:16:14.750Z,47.67
2023-05-14T19:18:42.923Z,47.60
2023-05-14T19:21:10.989Z,47.83
2023-05-14T19:23:39.579Z,47.95
2023-05-14T19:26:07.571Z,48.11
2023-05-14T19:28:37.933Z,48.10
2023-05-14T19:31:06.085Z,48.28
2023-05-14T19:33:33.968Z,48.17
2023-05-14T19:36:01.776Z,48.47
2023-05-14T19:38:30.497Z,48.37
2023-05-14T19:40:58.332Z,48.73
2023-05-14T19:43:28.048Z,48.60
2023-05-14T19:45:56.123Z,48.85
2023-05-14T19:48:24.112Z,49.22
2023-05-14T19:50:52.134Z,49.65
2023-05-14T19:53:19.877Z,49.78
2023-05-14T19:55:48.898Z,49.80
2023-05-14T19:58:16.746Z,49.91
2023-05-14T20:00:44.580Z,49.93
2023-05-14T20:03:15.802Z,49.92
2023-05-14T20:05:46.551Z,50.05
2023-05-14T20:08:16.984Z,50.28
2023-05-14T20:10:45.150Z,50.30
2023-05-14T20:13:13.092Z,50.46
2023-05-14T20:15:41.432Z,50.47
2023-05-14T20:18:09.413Z,50.75
2023-05-14T20:20:37.400Z,50.88
2023-05-14T20:23:06.373Z,50.84
2023-05-14T20:25:35.047Z,50.87
2023-05-14T20:28:02.874Z,50.97
2023-05-14T20:30:31.553Z,51.25
2023-05-14T20:32:59.584Z,51.39
2023-05-14T20:35:27.690Z,51.50
2023-05-14T20:37:56.500Z,51.43
2023-05-14T20:40:25.357Z,51.67
2023-05-14T20:42:53.231Z,51.80
2023-05-14T20:45:24.281Z,52.02
2023-05-14T20:47:52.705Z,52.25
2023-05-14T20:50:21.629Z,52.63
2023-05-14T20:52:49.394Z,52.74
2023-05-14T20:55:17.945Z,52.94
2023-05-14T20:57:45.775Z,53.12
2023-05-14T21:00:15.097Z,53.46
2023-05-14T21:02:43.515Z,54.19
2023-05-14T21:05:11.429Z,54.94
2023-05-14T21:07:39.497Z,55.18
2023-05-14T21:10:09.310Z,55.76
2023-05-14T21:12:37.178Z,56.11
2023-05-14T21:15:05.811Z,56.68
2023-05-14T21:17:33.774Z,57.20
2023-05-14T21:20:01.617Z,57.62
2023-05-14T21:22:29.438Z,57.79
2023-05-14T21:24:57.288Z,58.34
2023-05-14T21:27:25.139Z,59.17
2023-05-14T21:29:52.921Z,59.96
2023-05-14T21:32:22.446Z,60.20
2023-05-14T21:34:50.387Z,60.13
2023-05-14T21:37:18.186Z,60.15
2023-05-14T21:39:45.996Z,60.60
2023-05-14T21:42:13.830Z,61.24
2023-05-14T21:44:43.149Z,61.52
2023-05-14T21:47:11.488Z,62.13
2023-05-14T21:49:39.196Z,62.19
2023-05-14T21:52:08.048Z,62.88
2023-05-14T21:54:35.884Z,63.03
2023-05-14T21:57:03.810Z,63.28
2023-05-14T21:59:33.765Z,63.50
2023-05-14T22:04:32.327Z,63.11
2023-05-14T22:07:00.148Z,63.12
2023-05-14T22:09:27.927Z,63.53
2023-05-14T22:11:57.148Z,63.87
2023-05-14T22:14:26.697Z,64.05
2023-05-14T22:16:54.604Z,64.74
2023-05-14T22:19:22.569Z,65.18
2023-05-14T22:21:50.299Z,65.16
2023-05-14T22:24:18.113Z,65.46
2023-05-14T22:26:46.062Z,65.46
2023-05-14T22:29:13.795Z,65.67
2023-05-14T22:31:41.582Z,65.89
2023-05-14T22:34:09.441Z,65.93
2023-05-14T22:36:37.398Z,65.98
2023-05-14T22:39:05.249Z,65.96
2023-05-14T22:41:33.163Z,66.08
2023-05-14T22:44:01.184Z,66.24
2023-05-14T22:46:29.651Z,66.32
2023-05-14T22:48:57.594Z,66.71
2023-05-14T22:51:25.981Z,66.70
2023-05-14T22:53:54.628Z,66.86
2023-05-14T22:56:22.412Z,66.67
2023-05-14T22:58:50.487Z,66.69
2023-05-14T23:01:18.286Z,67.01
2023-05-14T23:03:46.092Z,67.30
2023-05-14T23:06:14.695Z,67.45
2023-05-14T23:08:42.581Z,67.28
2023-05-14T23:11:10.380Z,67.27
2023-05-14T23:13:38.160Z,67.12
2023-05-14T23:16:06.113Z,66.87
2023-05-14T23:18:34.340Z,67.04
2023-05-14T23:21:02.396Z,66.78
2023-05-14T23:23:30.116Z,67.31
2023-05-14T23:25:58.017Z,67.84
2023-05-14T23:28:25.893Z,68.11
2023-05-14T23:30:53.661Z,67.57
2023-05-14T23:33:21.794Z,67.49
2023-05-14T23:35:49.660Z,67.71
2023-05-14T23:38:17.657Z,67.64
2023-05-14T23:40:45.477Z,67.98
2023-05-14T23:43:14.685Z,68.08
2023-05-14T23:45:42.650Z,68.24
2023-05-14T23:48:11.299Z,68.42
2023-05-14T23:50:39.092Z,68.78
2023-05-14T23:53:07.871Z,68.81
2023-05-14T23:55:35.923Z,68.65
2023-05-14T23:58:03.861Z,68.62
